Latest Weather Observations for Bundaberg

IDQ60801

Issued at 11:31 am EST Tuesday 9 February 2016 (issued every 30 minutes, with the page automatically refreshed every 10 minutes)

About weather observations | Map of weather stations | Latest weather observations for QLD | Other Formats
Station Details ID: 039128 Name: BUNDABERG AERO Lat: -24.91 Lon: 152.32 Height: 30.82 m
Data from the previous 72 hours. | See also: Recent months at Bundaberg
Date/Time
EST
Temp
°C
App
Temp
°C
Dew
Point
Rel
Hum
%
Delta-T
°C
Wind Press
QNH
hPa
Press
MSL
hPa
Rain
since 9 am
mm
Dir
 
Spd
km/h
Gust
km/h
Spd
kts
Gust
kts
09/11:30am 27.2 25.0 17.9 56 5.9 SE 26 41 14 22 1013.5 1013.3 0.0
09/11:00am 27.8 26.1 17.3 52 6.6 SSE 22 32 12 17 1013.4 1013.2 0.0
09/10:30am 27.8 26.4 17.9 54 6.3 SSE 22 32 12 17 1013.6 1013.4 0.0
09/10:00am 27.8 26.1 18.2 56 6.1 SSE 24 33 13 18 1013.6 1013.4 0.0
09/09:30am 27.2 24.4 18.2 58 5.7 SE 30 41 16 22 1014.0 1013.8 0.0
09/09:00am 26.1 24.8 19.0 65 4.6 SSE 24 33 13 18 1014.0 1013.8 0.0
09/08:30am 26.2 24.6 19.3 65 4.4 SE 26 39 14 21 1014.0 1013.8 0.0
09/08:00am 25.5 25.5 20.1 72 3.5 SSE 20 30 11 16 1013.9 1013.7 0.0
09/07:30am 23.8 23.8 18.9 74 3.1 SSE 17 24 9 13 1013.7 1013.5 0.0
09/07:00am 22.6 23.1 19.2 81 2.2 S 15 24 8 13 1013.4 1013.2 0.0
09/06:30am 22.0 22.9 19.2 84 1.8 S 13 19 7 10 1013.4 1013.2 0.0
09/06:00am 21.3 22.2 19.2 88 1.3 S 13 19 7 10 1013.2 1013.0 0.0
09/05:30am 21.2 22.5 19.3 89 1.2 S 11 17 6 9 1012.8 1012.6 0.0
09/05:00am 21.4 22.4 19.5 89 1.2 S 13 19 7 10 1012.4 1012.2 0.0
09/04:30am 21.1 22.4 19.4 90 1.1 S 11 17 6 9 1012.1 1011.9 0.0
09/04:00am 21.1 22.1 19.4 90 1.1 S 13 19 7 10 1011.9 1011.7 0.0
09/03:30am 21.2 22.1 19.3 89 1.2 S 13 19 7 10 1011.9 1011.7 0.0
09/03:00am 21.3 22.3 19.4 89 1.2 S 13 17 7 9 1012.1 1011.9 0.0
09/02:30am 21.2 22.5 19.3 89 1.2 S 11 17 6 9 1012.2 1012.0 0.0
09/02:00am 21.2 22.8 19.1 88 1.3 SSW 9 13 5 7 1012.4 1012.2 0.0
09/01:30am 21.3 22.5 19.0 87 1.5 SSW 11 15 6 8 1012.8 1012.6 0.0
09/01:00am 21.2 22.4 19.1 88 1.3 SSW 11 15 6 8 1012.9 1012.7 0.0
09/12:30am 21.4 22.2 19.0 86 1.5 S 13 20 7 11 1013.0 1012.8 0.0
09/12:00am 21.3 22.0 18.9 86 1.5 S 13 17 7 9 1013.4 1013.2 0.0
 
Date/Time
EST
Temp
°C
App
Temp
°C
Dew
Point
Rel
Hum
%
Delta-T
°C
Wind Press
QNH
hPa
Press
MSL
hPa
Rain
since 9 am
mm
Dir
 
Spd
km/h
Gust
km/h
Spd
kts
Gust
kts
08/11:30pm 21.5 23.0 18.9 85 1.6 S 9 13 5 7 1013.9 1013.7 0.0
08/11:00pm 21.6 23.1 19.0 85 1.6 SSW 9 13 5 7 1014.2 1014.0 0.0
08/10:30pm 21.9 23.4 18.9 83 1.9 S 9 15 5 8 1014.2 1014.0 0.0
08/10:00pm 22.2 23.7 18.8 81 2.1 S 9 15 5 8 1014.3 1014.1 0.0
08/09:30pm 22.6 23.6 18.6 78 2.5 SSE 11 17 6 9 1014.2 1014.0 0.0
08/09:00pm 22.9 23.5 18.7 77 2.7 SSE 13 17 7 9 1014.1 1013.9 0.0
08/08:30pm 23.0 23.2 18.5 76 2.8 SSE 15 20 8 11 1013.8 1013.6 0.0
08/08:00pm 23.1 22.9 18.4 75 3.0 SE 17 20 9 11 1013.8 1013.6 0.0
08/07:30pm 23.6 23.5 18.7 74 3.1 ESE 17 20 9 11 1013.5 1013.3 0.0
08/07:00pm 24.4 23.9 18.6 70 3.7 ESE 19 24 10 13 1013.0 1012.8 0.0
08/06:30pm 25.2 23.3 18.6 67 4.2 ESE 26 35 14 19 1012.6 1012.4 0.0
08/06:00pm 26.2 24.3 18.6 63 4.8 ESE 26 35 14 19 1012.1 1011.9 0.0
08/05:30pm 27.0 24.8 18.6 60 5.4 ESE 28 35 15 19 1011.6 1011.4 0.0
08/05:00pm 27.8 24.6 18.2 56 6.1 ESE 32 39 17 21 1010.9 1010.7 0.0
08/04:30pm 28.2 24.6 17.7 53 6.7 ESE 33 44 18 24 1010.9 1010.7 0.0
08/04:00pm 28.6 26.4 19.5 58 5.9 ESE 30 43 16 23 1010.7 1010.5 0.0
08/03:30pm 27.9 25.1 19.1 58 5.7 ESE 32 44 17 24 1011.0 1010.8 0.0
08/03:00pm 27.8 25.7 19.8 61 5.2 E 30 39 16 21 1011.2 1011.0 0.0
08/02:30pm 27.9 25.7 18.6 57 6.0 ESE 28 37 15 20 1011.6 1011.4 0.0
08/02:00pm 28.8 26.2 17.7 51 7.0 SE 28 35 15 19 1012.1 1011.9 0.0
08/01:30pm 29.0 25.8 16.2 46 7.9 ESE 28 37 15 20 1012.4 1012.2 0.0
08/01:00pm 28.6 25.9 16.5 48 7.5 ESE 26 37 14 20 1012.7 1012.5 0.0
08/12:30pm 28.5 26.6 18.6 55 6.4 ESE 26 37 14 20 1013.0 1012.8 0.0
08/12:00pm 28.1 26.8 18.2 55 6.3 SE 22 32 12 17 1013.2 1013.0 0.0
08/11:30am 28.1 26.2 18.5 56 6.2 SE 26 41 14 22 1013.5 1013.3 0.0
08/11:00am 28.7 27.0 18.2 53 6.7 SE 24 32 13 17 1013.8 1013.6 0.0
08/10:30am 28.3 27.1 19.2 57 5.9 SE 24 32 13 17 1013.9 1013.7 0.0
08/10:00am 26.5 24.4 18.1 60 5.3 SE 26 35 14 19 1014.2 1014.0 0.0
08/09:30am 27.0 24.8 18.6 60 5.4 SE 28 35 15 19 1014.2 1014.0 0.0
08/09:00am 26.5 23.8 18.4 61 5.2 SSE 30 37 16 20 1014.1 1013.9 0.2
08/08:30am 25.7 23.8 18.6 65 4.5 SE 26 35 14 19 1014.1 1013.9 0.2
08/08:00am 24.7 24.2 18.6 69 3.9 SSE 19 28 10 15 1014.1 1013.9 0.2
08/07:30am 24.1 23.7 19.0 73 3.2 SSE 19 30 10 16 1013.9 1013.7 0.2
08/07:00am 23.1 22.6 18.6 76 2.8 SSE 19 28 10 15 1013.9 1013.7 0.2
08/06:30am 22.3 22.7 19.1 82 2.0 SSE 15 22 8 12 1013.8 1013.6 0.2
08/06:00am 21.5 22.3 19.1 86 1.5 S 13 19 7 10 1013.4 1013.2 0.2
08/05:30am 21.3 22.2 19.2 88 1.3 S 13 19 7 10 1013.0 1012.8 0.2
08/05:00am 21.4 22.3 19.3 88 1.3 S 13 20 7 11 1012.6 1012.4 0.2
08/04:30am 21.3 22.2 19.2 88 1.3 S 13 20 7 11 1012.4 1012.2 0.2
08/04:00am 21.5 22.4 19.2 87 1.5 S 13 19 7 10 1012.4 1012.2 0.2
08/03:30am 21.7 22.7 19.4 87 1.5 SSE 13 20 7 11 1012.5 1012.3 0.2
08/03:00am 21.6 22.6 19.5 88 1.3 SSE 13 17 7 9 1012.5 1012.3 0.2
08/02:30am 21.6 23.0 19.5 88 1.3 S 11 17 6 9 1012.6 1012.4 0.2
08/02:00am 21.7 22.7 19.4 87 1.5 S 13 19 7 10 1012.8 1012.6 0.2
08/01:30am 21.8 23.6 19.5 87 1.5 S 9 13 5 7 1012.9 1012.7 0.2
08/01:00am 22.2 23.7 19.7 86 1.6 S 11 15 6 8 1013.1 1012.9 0.2
08/12:30am 22.3 23.8 19.8 86 1.6 S 11 15 6 8 1013.4 1013.2 0.2
08/12:00am 22.6 24.6 19.9 85 1.7 SSE 9 13 5 7 1013.6 1013.4 0.2
 
Date/Time
EST
Temp
°C
App
Temp
°C
Dew
Point
Rel
Hum
%
Delta-T
°C
Wind Press
QNH
hPa
Press
MSL
hPa
Rain
since 9 am
mm
Dir
 
Spd
km/h
Gust
km/h
Spd
kts
Gust
kts
07/11:30pm 22.6 24.3 20.1 86 1.6 S 11 15 6 8 1013.8 1013.6 0.2
07/11:00pm 23.0 24.8 20.3 85 1.7 SSE 11 17 6 9 1013.9 1013.7 0.2
07/10:30pm 23.2 24.6 20.3 84 1.9 SSE 13 19 7 10 1014.1 1013.9 0.2
07/10:00pm 23.3 24.4 20.4 84 1.9 SSE 15 24 8 13 1014.1 1013.9 0.2
07/09:30pm 23.5 23.8 20.4 83 2.0 SSE 19 24 10 13 1013.9 1013.7 0.2
07/09:00pm 23.6 23.9 20.5 83 2.0 SE 19 24 10 13 1013.5 1013.3 0.2
07/08:30pm 23.8 24.0 20.5 82 2.1 SE 20 30 11 16 1013.2 1013.0 0.2
07/08:00pm 23.9 24.1 20.6 82 2.2 SE 20 26 11 14 1013.1 1012.9 0.2
07/07:30pm 24.2 23.2 20.5 80 2.4 SE 26 33 14 18 1012.7 1012.5 0.2
07/07:00pm 24.6 24.9 20.7 79 2.6 SE 20 30 11 16 1012.2 1012.0 0.2
07/06:30pm 25.1 24.6 20.8 77 2.8 SE 24 30 13 16 1011.8 1011.6 0.2
07/06:00pm 25.5 23.3 20.3 73 3.4 SE 32 43 17 23 1011.5 1011.3 0.2
07/05:30pm 26.5 26.9 21.0 72 3.6 SE 20 35 11 19 1011.0 1010.8 0.2
07/05:00pm 25.9 25.7 21.3 76 3.1 SE 24 35 13 19 1010.7 1010.5 0.2
07/04:30pm 26.8 25.2 21.6 73 3.5 ESE 32 39 17 21 1010.2 1010.0 0.2
07/04:00pm 27.2 25.8 21.9 73 3.6 ESE 32 41 17 22 1009.9 1009.7 0.2
07/03:30pm 27.5 25.0 19.8 63 5.0 SE 32 43 17 23 1009.9 1009.7 0.2
07/03:00pm 28.9 27.0 21.4 64 5.0 ESE 33 44 18 24 1009.9 1009.7 0.2
07/02:30pm 28.8 27.3 22.1 67 4.5 ESE 33 44 18 24 1010.0 1009.8 0.2
07/02:00pm 29.1 27.5 21.6 64 5.0 SE 32 41 17 22 1010.1 1009.9 0.2
07/01:30pm 28.3 26.5 21.1 65 4.8 SE 32 43 17 23 1010.4 1010.2 0.2
07/01:00pm 28.0 27.0 21.3 67 4.5 ESE 28 39 15 21 1010.7 1010.5 0.2
07/12:30pm 29.2 28.3 21.4 63 5.2 ESE 28 39 15 21 1011.0 1010.8 0.2
07/12:00pm 29.2 29.1 22.2 66 4.7 SE 26 33 14 18 1011.3 1011.1 0.2
07/11:30am 27.6 27.4 21.2 68 4.3 SE 24 33 13 18 1011.6 1011.4 0.2
07/11:00am 28.0 28.2 20.6 64 4.9 SSE 20 28 11 15 1011.6 1011.4 0.2
07/10:30am 27.6 27.7 21.2 68 4.3 SE 22 32 12 17 1011.7 1011.5 0.2
07/10:00am 26.6 26.5 21.4 73 3.5 SE 24 32 13 17 1011.5 1011.3 0.0
07/09:30am 25.8 26.1 21.5 77 2.9 SE 22 28 12 15 1011.5 1011.3 0.0
07/09:00am 25.2 26.9 21.7 81 2.3 SSE 15 22 8 12 1011.3 1011.1 4.0
07/08:30am 24.5 26.3 21.8 85 1.8 SSE 15 22 8 12 1011.4 1011.2 4.0
07/08:00am 24.1 26.3 21.8 87 1.5 SSE 13 20 7 11 1011.2 1011.0 4.0
07/07:30am 23.7 25.9 21.8 89 1.3 SSE 13 17 7 9 1011.2 1011.0 4.0
07/07:00am 23.3 25.0 21.6 90 1.1 SSE 15 20 8 11 1011.0 1010.8 4.0
07/06:30am 22.8 24.4 21.4 92 0.9 SSE 15 20 8 11 1010.8 1010.6 4.0
07/06:00am 22.8 25.1 21.4 92 0.9 SSE 11 17 6 9 1010.6 1010.4 4.0
07/05:30am 22.7 25.0 21.3 92 0.9 SSE 11 15 6 8 1010.2 1010.0 4.0
07/05:00am 22.8 25.1 21.4 92 0.9 S 11 17 6 9 1009.9 1009.7 4.0
07/04:30am 22.8 25.1 21.4 92 0.9 SSE 11 17 6 9 1009.5 1009.3 4.0
07/04:00am 22.8 24.7 21.3 91 1.0 SSE 13 19 7 10 1009.2 1009.0 4.0
07/03:30am 23.0 25.0 21.5 91 1.0 SSE 13 19 7 10 1009.0 1008.8 4.0
07/03:00am 22.9 25.3 21.5 92 0.9 S 11 15 6 8 1009.2 1009.0 4.0
07/02:30am 22.9 24.8 21.4 91 1.0 S 13 17 7 9 1009.1 1008.9 4.0
07/02:00am 22.8 24.8 21.6 93 0.8 S 13 17 7 9 1009.3 1009.1 4.0
07/01:30am 22.6 24.9 21.4 93 0.8 S 11 17 6 9 1009.6 1009.4 4.0
07/01:00am 22.6 25.3 21.4 93 0.8 S 9 13 5 7 1009.7 1009.5 4.0
07/12:30am 22.7 24.9 21.2 91 1.0 S 11 15 6 8 1010.1 1009.9 4.0
07/12:00am 22.8 25.1 21.3 91 1.0 S 11 17 6 9 1010.6 1010.4 4.0
 
Date/Time
EST
Temp
°C
App
Temp
°C
Dew
Point
Rel
Hum
%
Delta-T
°C
Wind Press
QNH
hPa
Press
MSL
hPa
Rain
since 9 am
mm
Dir
 
Spd
km/h
Gust
km/h
Spd
kts
Gust
kts
06/11:30pm 22.7 24.9 21.2 91 1.0 S 11 15 6 8 1010.9 1010.7 4.0
06/11:00pm 22.7 25.3 21.2 91 1.0 SSE 9 13 5 7 1011.0 1010.8 4.0
06/10:30pm 22.8 24.7 21.3 91 1.0 SSE 13 17 7 9 1011.0 1010.8 4.0
06/10:00pm 22.8 25.1 21.3 91 1.0 SSE 11 17 6 9 1011.2 1011.0 4.0
06/09:30pm 22.8 24.7 21.3 91 1.0 SSE 13 19 7 10 1011.2 1011.0 4.0
06/09:00pm 22.7 24.7 21.5 93 0.8 SSE 13 19 7 10 1011.1 1010.9 4.0
06/08:30pm 22.5 24.4 21.3 93 0.8 SSE 13 19 7 10 1010.7 1010.5 4.0
06/08:00pm 22.8 25.2 21.6 93 0.8 S 11 17 6 9 1010.3 1010.1 4.0
06/07:54pm 22.7 24.7 21.5 93 0.8 SSE 13 19 7 10 1010.2 1010.0 4.0
06/07:42pm 22.6 24.3 21.6 94 0.7 SSE 15 24 8 13 1010.2 1010.0 4.0
06/07:30pm 22.7 24.3 21.5 93 0.8 SSE 15 22 8 12 1009.9 1009.7 3.6
06/07:16pm 22.6 22.7 21.2 92 0.9 SE 22 33 12 18 1009.7 1009.5 3.4
06/07:00pm 22.8 21.9 21.4 92 0.9 ESE 28 48 15 26 1009.4 1009.2 3.4
06/06:43pm 23.4 24.7 22.4 94 0.7 SE 19 24 10 13 1008.9 1008.7 2.2
06/06:30pm 23.3 24.5 22.1 93 0.8 SE 19 30 10 16 1008.8 1008.6 2.0
06/06:00pm 23.1 22.9 21.2 89 1.2 ESE 24 32 13 17 1008.4 1008.2 1.6
06/05:30pm 24.4 25.7 22.3 88 1.4 SE 19 26 10 14 1007.9 1007.7 1.2
06/05:00pm 24.4 25.0 22.1 87 1.5 SE 22 30 12 16 1007.5 1007.3 1.2
06/04:30pm 24.2 23.7 22.1 88 1.4 SE 28 35 15 19 1007.4 1007.2 1.2
06/04:14pm 24.2 24.6 22.5 90 1.1 SE 24 32 13 17 1007.3 1007.1 1.2
06/04:01pm 24.0 25.1 22.4 91 1.1 SSE 20 30 11 16 1007.4 1007.2 1.0
06/04:00pm 23.9 24.9 22.2 90 1.1 SSE 20 30 11 16 1007.4 1007.2 1.0
06/03:30pm 24.4 25.0 22.8 91 1.1 SE 24 33 13 18 1007.4 1007.2 1.0
06/03:00pm 24.3 24.1 22.0 87 1.5 SE 26 39 14 21 1007.4 1007.2 1.0
06/02:30pm 24.5 25.1 22.8 90 1.1 SE 24 32 13 17 1007.3 1007.1 0.8
06/02:00pm 24.5 23.4 21.8 85 1.8 SE 30 43 16 23 1007.3 1007.1 0.4
06/01:30pm 26.1 24.2 22.0 78 2.7 SE 35 46 19 25 1007.4 1007.2 0.2
06/01:00pm 26.1 24.0 21.7 77 2.9 SE 35 43 19 23 1007.8 1007.6 0.2
06/12:30pm 26.2 25.5 21.8 77 2.9 SE 28 39 15 21 1008.0 1007.8 0.2
06/12:00pm 25.9 25.0 22.2 80 2.5 SE 30 43 16 23 1008.1 1007.9 0.2

Other Formats:

Comma delimited format used in spreadsheet applications
http://www.bom.gov.au/fwo/IDQ60801/IDQ60801.94387.axf

JavaScript Object Notation format (JSON) in row-major order
http://www.bom.gov.au/fwo/IDQ60801/IDQ60801.94387.json